Terminal Aerodrome Forecast
Issued by NWS

Home | Current Version | Previous Version | Graphics & Text | Print | Product List | Glossary On
Versions: 1 2 3 4 5 6 7 8 9 10 11 12 13 14 15 16 17 18 19 20 21
000
FTUS42 KMHX 300929 AAA
TAFOAJ
TAF AMD
KOAJ 300929Z 3009/3106 00000KT 4SM BR SCT008
      TEMPO 3010/3012 2SM BR BKN008
     FM301200 15006KT P6SM SCT050
     FM310200 18003KT P6SM SCT250
      AMD LTD TO CLD VIS AND WIND=

USA.gov is the U.S. government's official web portal to all federal, state and local government web resources and services.